createdAt,value
2017-06-02T00:00:47.018Z,7.90
2017-06-02T00:03:15.947Z,7.63
2017-06-02T00:05:44.901Z,7.88
2017-06-02T00:08:13.856Z,7.58
2017-06-02T00:10:42.779Z,7.67
2017-06-02T00:13:11.759Z,8.40
2017-06-02T00:15:40.690Z,8.38
2017-06-02T00:18:09.619Z,8.28
2017-06-02T00:20:38.594Z,9.92
2017-06-02T00:23:07.527Z,10.38
2017-06-02T00:25:36.454Z,10.15
2017-06-02T00:28:05.405Z,10.58
2017-06-02T00:30:34.334Z,9.98
2017-06-02T00:33:03.254Z,8.07
2017-06-02T00:35:32.206Z,8.73
2017-06-02T00:38:01.144Z,7.42
2017-06-02T00:40:30.090Z,8.13
2017-06-02T00:42:59.049Z,7.63
2017-06-02T00:45:27.971Z,8.22
2017-06-02T00:47:56.897Z,7.67
2017-06-02T00:50:25.854Z,7.87
2017-06-02T00:52:54.792Z,7.27
2017-06-02T00:55:23.733Z,8.47
2017-06-02T00:57:52.700Z,7.15
2017-06-02T01:00:21.644Z,7.17
2017-06-02T01:02:50.584Z,6.53
2017-06-02T01:05:19.551Z,7.32
2017-06-02T01:07:48.492Z,6.12
2017-06-02T01:10:17.418Z,5.82
2017-06-02T01:12:46.388Z,6.68
2017-06-02T01:15:15.310Z,6.60
2017-06-02T01:17:44.235Z,6.73
2017-06-02T01:20:13.185Z,7.40
2017-06-02T01:22:42.129Z,7.78
2017-06-02T01:25:11.050Z,7.95
2017-06-02T01:27:40.007Z,8.85
2017-06-02T01:30:08.946Z,9.58
2017-06-02T01:32:37.893Z,7.92
2017-06-02T01:35:06.866Z,8.30
2017-06-02T01:37:35.816Z,8.23
2017-06-02T01:40:04.756Z,7.77
2017-06-02T01:42:33.709Z,7.97
2017-06-02T01:45:02.637Z,8.57
2017-06-02T01:47:31.581Z,9.88
2017-06-02T01:50:00.538Z,8.62
2017-06-02T01:52:29.486Z,8.62
2017-06-02T01:54:58.410Z,8.60
2017-06-02T01:57:27.386Z,9.12
2017-06-02T01:59:56.311Z,9.80
2017-06-02T02:02:25.253Z,9.18
2017-06-02T02:04:54.197Z,7.52
2017-06-02T02:07:23.123Z,8.55
2017-06-02T02:09:52.068Z,8.47
2017-06-02T02:12:21.037Z,7.22
2017-06-02T02:14:49.989Z,7.35
2017-06-02T02:17:18.921Z,7.30
2017-06-02T02:19:47.892Z,8.97
2017-06-02T02:22:16.826Z,8.20
2017-06-02T02:24:45.769Z,7.03
2017-06-02T02:27:14.726Z,7.42
2017-06-02T02:29:43.653Z,7.40
2017-06-02T02:32:12.577Z,7.73
2017-06-02T02:34:41.537Z,7.57
2017-06-02T02:37:10.457Z,6.52
2017-06-02T02:39:39.405Z,7.43
2017-06-02T02:42:08.350Z,6.32
2017-06-02T02:44:37.280Z,6.87
2017-06-02T02:47:06.204Z,6.83
2017-06-02T02:49:35.152Z,6.77
2017-06-02T02:52:04.097Z,6.80
2017-06-02T02:54:33.039Z,7.37
2017-06-02T02:57:02.010Z,6.83
2017-06-02T02:59:30.934Z,7.47
2017-06-02T03:01:59.862Z,6.05
2017-06-02T03:04:28.835Z,8.13
2017-06-02T03:06:57.754Z,6.55
2017-06-02T03:09:26.697Z,6.42
2017-06-02T03:11:55.681Z,6.43
2017-06-02T03:14:24.621Z,6.72
2017-06-02T03:16:53.543Z,6.08
2017-06-02T03:19:22.498Z,7.38
2017-06-02T03:21:51.421Z,6.55
2017-06-02T03:24:20.349Z,6.58
2017-06-02T03:26:49.298Z,7.33
2017-06-02T03:29:18.302Z,7.68
2017-06-02T03:31:47.234Z,7.13
2017-06-02T03:34:16.630Z,7.62
2017-06-02T03:36:45.551Z,8.42
2017-06-02T03:39:14.472Z,7.53
2017-06-02T03:41:43.417Z,7.08
2017-06-02T03:44:12.342Z,7.92
2017-06-02T03:46:41.297Z,7.67
2017-06-02T03:49:10.261Z,8.23
2017-06-02T03:51:39.204Z,7.22
2017-06-02T03:54:08.157Z,7.53
2017-06-02T03:56:37.129Z,7.75
2017-06-02T03:59:06.058Z,10.57
2017-06-02T04:01:34.973Z,9.37
2017-06-02T04:04:03.936Z,8.22
2017-06-02T04:06:32.854Z,7.30
2017-06-02T04:09:01.796Z,8.65
2017-06-02T04:11:30.777Z,8.20
2017-06-02T04:13:59.710Z,7.72
2017-06-02T04:16:28.630Z,6.82
2017-06-02T04:18:57.602Z,9.13
2017-06-02T04:21:26.534Z,7.50
2017-06-02T04:23:55.458Z,8.25
2017-06-02T04:26:24.434Z,7.82
2017-06-02T04:28:53.359Z,7.80
2017-06-02T04:31:22.301Z,6.82
2017-06-02T04:33:51.252Z,8.12
2017-06-02T04:36:20.203Z,7.68
2017-06-02T04:38:49.142Z,5.78
2017-06-02T04:41:18.112Z,6.48
2017-06-02T04:43:47.048Z,6.30
2017-06-02T04:46:15.981Z,6.73
2017-06-02T04:48:44.961Z,5.92
2017-06-02T04:51:13.909Z,6.02
2017-06-02T04:53:42.840Z,6.05
2017-06-02T04:56:11.798Z,5.92
2017-06-02T04:58:40.743Z,5.60
2017-06-02T05:01:09.685Z,5.63
2017-06-02T05:03:38.634Z,5.28
2017-06-02T05:06:07.579Z,5.52
2017-06-02T05:08:36.497Z,6.03
2017-06-02T05:11:05.453Z,5.78
2017-06-02T05:13:34.378Z,5.80
2017-06-02T05:16:03.328Z,5.20
2017-06-02T05:18:32.301Z,4.92
2017-06-02T05:21:01.222Z,5.12
2017-06-02T05:23:30.142Z,6.38
2017-06-02T05:25:59.115Z,5.77
2017-06-02T05:28:28.052Z,5.23
2017-06-02T05:30:56.974Z,4.93
2017-06-02T05:33:25.946Z,5.03
2017-06-02T05:35:54.884Z,5.53
2017-06-02T05:38:23.825Z,4.62
2017-06-02T05:40:52.783Z,5.73
2017-06-02T05:43:21.727Z,5.32
2017-06-02T05:45:50.673Z,4.63
2017-06-02T05:48:19.649Z,4.63
2017-06-02T05:50:48.569Z,4.60
2017-06-02T05:53:17.493Z,4.22
2017-06-02T05:55:46.444Z,4.00
2017-06-02T05:58:15.380Z,4.85
2017-06-02T06:00:44.303Z,3.30
2017-06-02T06:03:13.267Z,3.12
2017-06-02T06:05:42.189Z,2.95
2017-06-02T06:08:11.132Z,3.38
2017-06-02T06:10:40.098Z,2.93
2017-06-02T06:13:09.018Z,2.23
2017-06-02T06:15:37.935Z,2.20
2017-06-02T06:18:06.901Z,1.67
2017-06-02T06:20:35.847Z,1.70
2017-06-02T06:23:04.796Z,2.00
2017-06-02T06:25:33.748Z,1.87
2017-06-02T06:28:02.690Z,2.37
2017-06-02T06:30:31.618Z,1.72
2017-06-02T06:33:00.574Z,2.12
2017-06-02T06:35:29.510Z,2.10
2017-06-02T06:37:58.874Z,1.57
2017-06-02T06:40:27.841Z,2.57
2017-06-02T06:42:56.771Z,2.10
2017-06-02T06:45:25.717Z,2.43
2017-06-02T06:47:54.688Z,2.00
2017-06-02T06:50:23.618Z,1.90
2017-06-02T06:52:52.547Z,1.95
2017-06-02T06:55:21.525Z,4.57
2017-06-02T06:57:50.447Z,1.85
2017-06-02T07:00:19.393Z,1.92
2017-06-02T07:02:48.389Z,2.37
2017-06-02T07:05:17.312Z,1.90
2017-06-02T07:07:46.241Z,1.52
2017-06-02T07:10:15.203Z,1.40
2017-06-02T07:12:44.146Z,1.62
2017-06-02T07:15:13.067Z,1.95
2017-06-02T07:17:42.044Z,1.65
2017-06-02T07:20:10.968Z,1.53
2017-06-02T07:22:39.912Z,1.48
2017-06-02T07:25:08.865Z,1.97
2017-06-02T07:27:37.808Z,1.58
2017-06-02T07:30:06.725Z,1.52
2017-06-02T07:32:35.702Z,1.42
2017-06-02T07:35:04.640Z,1.77
2017-06-02T07:37:33.565Z,1.42
2017-06-02T07:40:02.954Z,1.30
2017-06-02T07:42:31.873Z,1.58
2017-06-02T07:45:00.794Z,1.68
2017-06-02T07:47:29.755Z,1.40
2017-06-02T07:49:58.690Z,1.23
2017-06-02T07:52:27.637Z,1.72
2017-06-02T07:54:56.594Z,1.30
2017-06-02T07:57:25.541Z,1.60
2017-06-02T07:59:54.469Z,1.35
2017-06-02T08:02:23.557Z,1.20
2017-06-02T08:04:52.489Z,1.32
2017-06-02T08:07:21.417Z,1.52
2017-06-02T08:09:50.391Z,1.76
2017-06-02T08:12:19.332Z,1.36
2017-06-02T08:14:48.284Z,1.46
2017-06-02T08:17:17.230Z,1.36
2017-06-02T08:19:46.154Z,1.20
2017-06-02T08:22:15.096Z,1.38
2017-06-02T08:24:44.042Z,1.34
2017-06-02T08:27:12.970Z,1.48
2017-06-02T08:29:41.909Z,1.46
2017-06-02T08:32:10.876Z,1.30
2017-06-02T08:34:39.799Z,1.14
2017-06-02T08:37:08.737Z,1.40
2017-06-02T08:39:37.700Z,1.20
2017-06-02T08:42:06.643Z,1.22
2017-06-02T08:44:35.583Z,3.68
2017-06-02T08:47:04.534Z,1.68
2017-06-02T08:49:33.490Z,1.82
2017-06-02T08:52:02.414Z,1.40
2017-06-02T08:54:31.385Z,1.20
2017-06-02T08:57:00.320Z,1.58
2017-06-02T08:59:29.256Z,0.90
2017-06-02T09:01:58.218Z,1.36
2017-06-02T09:04:27.138Z,1.12
2017-06-02T09:06:56.069Z,1.20
2017-06-02T09:09:25.013Z,0.76
2017-06-02T09:11:53.949Z,1.00
2017-06-02T09:14:22.884Z,1.10
2017-06-02T09:16:51.844Z,1.00
2017-06-02T09:19:20.780Z,1.10
2017-06-02T09:21:49.717Z,1.12
2017-06-02T09:24:18.661Z,1.04
2017-06-02T09:26:47.577Z,1.38
2017-06-02T09:29:16.493Z,0.82
2017-06-02T09:31:45.461Z,1.12
2017-06-02T09:34:14.384Z,1.00
2017-06-02T09:36:43.325Z,1.28
2017-06-02T09:39:12.292Z,1.20
2017-06-02T09:41:41.224Z,1.20
2017-06-02T09:44:10.156Z,1.44
2017-06-02T09:46:39.124Z,1.36
2017-06-02T09:49:08.040Z,1.40
2017-06-02T09:51:36.982Z,1.10
2017-06-02T09:54:05.954Z,1.10
2017-06-02T09:56:34.894Z,1.18
2017-06-02T09:59:03.812Z,1.20
2017-06-02T10:01:32.758Z,1.50
2017-06-02T10:04:01.677Z,1.26
2017-06-02T10:06:30.601Z,1.02
2017-06-02T10:08:59.556Z,1.88
2017-06-02T10:11:28.496Z,1.38
2017-06-02T10:13:57.437Z,1.52
2017-06-02T10:16:26.406Z,1.80
2017-06-02T10:18:55.318Z,1.60
2017-06-02T10:21:24.259Z,1.66
2017-06-02T10:23:53.233Z,2.02
2017-06-02T10:26:22.153Z,1.58
2017-06-02T10:28:51.074Z,1.40
2017-06-02T10:31:20.023Z,1.56
2017-06-02T10:33:48.959Z,1.50
2017-06-02T10:36:17.905Z,1.72
2017-06-02T10:38:46.868Z,1.24
2017-06-02T10:41:15.804Z,1.62
2017-06-02T10:43:44.726Z,2.14
2017-06-02T10:46:13.696Z,1.92
2017-06-02T10:48:42.633Z,1.70
2017-06-02T10:51:11.568Z,1.58
2017-06-02T10:53:40.514Z,1.76
2017-06-02T10:56:09.434Z,1.72
2017-06-02T10:58:38.358Z,2.40
2017-06-02T11:01:07.301Z,1.60
2017-06-02T11:03:36.218Z,1.68
2017-06-02T11:06:05.130Z,1.60
2017-06-02T11:08:34.084Z,1.42
2017-06-02T11:11:03.017Z,1.60
2017-06-02T11:13:31.937Z,1.98
2017-06-02T11:16:01.876Z,1.62
2017-06-02T11:18:30.802Z,1.66
2017-06-02T11:20:59.801Z,1.80
2017-06-02T11:23:28.758Z,1.48
2017-06-02T11:25:57.678Z,1.70
2017-06-02T11:28:26.616Z,1.56
2017-06-02T11:30:55.574Z,2.38
2017-06-02T11:33:24.523Z,2.14
2017-06-02T11:35:53.446Z,1.82
2017-06-02T11:38:22.415Z,2.06
2017-06-02T11:40:51.357Z,1.78
2017-06-02T11:43:20.296Z,1.86
2017-06-02T11:45:49.281Z,2.18
2017-06-02T11:48:18.210Z,2.40
2017-06-02T11:50:47.143Z,1.82
2017-06-02T11:53:16.102Z,1.90
2017-06-02T11:55:45.023Z,2.48
2017-06-02T11:58:13.942Z,1.96
2017-06-02T12:00:43.314Z,1.58
2017-06-02T12:03:12.253Z,2.20
2017-06-02T12:05:41.191Z,1.60
2017-06-02T12:08:10.145Z,1.70
2017-06-02T12:10:39.095Z,2.26
2017-06-02T12:13:08.045Z,1.82
2017-06-02T12:15:37.033Z,2.52
2017-06-02T12:18:05.976Z,2.64
2017-06-02T12:20:34.922Z,2.10
2017-06-02T12:23:03.874Z,2.10
2017-06-02T12:25:32.806Z,1.76
2017-06-02T12:28:01.754Z,2.35
2017-06-02T12:30:30.727Z,1.75
2017-06-02T12:32:59.680Z,1.90
2017-06-02T12:35:28.628Z,2.40
2017-06-02T12:37:57.615Z,2.18
2017-06-02T12:40:26.569Z,2.20
2017-06-02T12:42:55.521Z,1.88
2017-06-02T12:45:24.513Z,2.10
2017-06-02T12:47:53.438Z,2.00
2017-06-02T12:50:22.387Z,2.18
2017-06-02T12:52:51.377Z,1.70
2017-06-02T12:55:20.301Z,2.04
2017-06-02T12:57:49.250Z,1.92
2017-06-02T13:00:18.232Z,1.70
2017-06-02T13:02:47.158Z,2.08
2017-06-02T13:05:16.082Z,1.80
2017-06-02T13:07:45.064Z,2.42
2017-06-02T13:10:14.006Z,2.18
2017-06-02T13:12:42.952Z,2.70
2017-06-02T13:15:11.929Z,2.35
2017-06-02T13:17:40.858Z,2.17
2017-06-02T13:20:09.787Z,2.55
2017-06-02T13:22:38.777Z,2.50
2017-06-02T13:25:07.728Z,1.82
2017-06-02T13:27:36.670Z,2.65
2017-06-02T13:30:05.631Z,2.00
2017-06-02T13:32:34.619Z,2.60
2017-06-02T13:35:03.538Z,1.85
2017-06-02T13:37:32.516Z,2.25
2017-06-02T13:40:01.473Z,1.98
2017-06-02T13:42:30.409Z,2.40
2017-06-02T13:44:59.379Z,2.08
2017-06-02T13:47:28.333Z,1.98
2017-06-02T13:49:57.288Z,1.78
2017-06-02T13:52:26.280Z,1.70
2017-06-02T13:54:55.210Z,1.83
2017-06-02T13:57:24.161Z,2.00
2017-06-02T13:59:53.141Z,2.08
2017-06-02T14:02:22.103Z,1.75
2017-06-02T14:04:51.056Z,1.72
2017-06-02T14:07:20.013Z,1.72
2017-06-02T14:09:48.968Z,1.70
2017-06-02T14:12:17.916Z,1.50
2017-06-02T14:14:46.885Z,2.08
2017-06-02T14:17:15.829Z,2.73
2017-06-02T14:19:44.770Z,1.58
2017-06-02T14:22:13.722Z,1.68
2017-06-02T14:24:42.654Z,1.93
2017-06-02T14:27:11.586Z,1.98
2017-06-02T14:29:40.546Z,1.75
2017-06-02T14:32:09.493Z,1.65
2017-06-02T14:34:38.444Z,2.07
2017-06-02T14:37:07.421Z,2.50
2017-06-02T14:39:36.381Z,2.05
2017-06-02T14:42:05.328Z,1.98
2017-06-02T14:44:34.323Z,2.02
2017-06-02T14:47:03.277Z,1.55
2017-06-02T14:49:32.233Z,1.87
2017-06-02T14:52:01.194Z,1.83
2017-06-02T14:54:30.147Z,1.90
2017-06-02T14:56:59.084Z,1.80
2017-06-02T14:59:28.054Z,2.25
2017-06-02T15:01:57.001Z,2.90
2017-06-02T15:04:25.948Z,1.88
2017-06-02T15:06:54.929Z,2.08
2017-06-02T15:09:23.870Z,2.48
2017-06-02T15:11:52.802Z,1.95
2017-06-02T15:14:21.777Z,1.95
2017-06-02T15:16:50.724Z,1.93
2017-06-02T15:19:19.662Z,1.80
2017-06-02T15:21:48.630Z,2.07
2017-06-02T15:24:17.576Z,2.48
2017-06-02T15:26:46.536Z,2.22
2017-06-02T15:29:15.501Z,1.82
2017-06-02T15:31:44.426Z,1.83
2017-06-02T15:34:13.358Z,1.52
2017-06-02T15:36:42.313Z,1.30
2017-06-02T15:39:11.238Z,1.30
2017-06-02T15:41:40.186Z,1.50
2017-06-02T15:44:09.145Z,1.40
2017-06-02T15:46:38.093Z,1.95
2017-06-02T15:49:07.030Z,4.32
2017-06-02T15:51:36.006Z,2.02
2017-06-02T15:54:04.957Z,2.60
2017-06-02T15:56:33.902Z,2.20
2017-06-02T15:59:02.882Z,2.67
2017-06-02T16:01:31.828Z,1.43
2017-06-02T16:04:00.770Z,1.45
2017-06-02T16:06:29.730Z,1.40
2017-06-02T16:08:58.656Z,2.05
2017-06-02T16:11:27.583Z,1.52
2017-06-02T16:13:56.569Z,1.43
2017-06-02T16:16:25.502Z,1.50
2017-06-02T16:18:54.454Z,1.40
2017-06-02T16:21:23.410Z,1.28
2017-06-02T16:23:52.369Z,1.30
2017-06-02T16:26:21.312Z,1.22
2017-06-02T16:28:50.311Z,1.60
2017-06-02T16:31:19.256Z,1.47
2017-06-02T16:33:48.193Z,1.82
2017-06-02T16:36:17.152Z,1.37
2017-06-02T16:38:46.085Z,1.88
2017-06-02T16:41:15.021Z,1.75
2017-06-02T16:43:44.001Z,2.15
2017-06-02T16:46:12.949Z,1.85
2017-06-02T16:48:41.885Z,1.28
2017-06-02T16:51:10.841Z,1.28
2017-06-02T16:53:39.767Z,1.30
2017-06-02T16:56:08.690Z,1.52
2017-06-02T16:58:37.689Z,1.37
2017-06-02T17:01:06.614Z,1.37
2017-06-02T17:03:35.537Z,1.50
2017-06-02T17:06:04.489Z,2.10
2017-06-02T17:08:33.419Z,1.43
2017-06-02T17:11:02.372Z,1.38
2017-06-02T17:13:31.349Z,1.48
2017-06-02T17:16:00.277Z,1.47
2017-06-02T17:18:29.230Z,1.23
2017-06-02T17:20:58.183Z,1.27
2017-06-02T17:23:27.129Z,1.55
2017-06-02T17:25:56.089Z,1.20
2017-06-02T17:28:25.043Z,1.10
2017-06-02T17:30:53.978Z,1.40
2017-06-02T17:33:22.951Z,1.55
2017-06-02T17:35:51.912Z,1.50
2017-06-02T17:38:20.853Z,1.93
2017-06-02T17:40:49.782Z,2.08
2017-06-02T17:43:18.753Z,1.27
2017-06-02T17:45:47.697Z,1.45
2017-06-02T17:48:16.625Z,1.38
2017-06-02T17:50:45.578Z,1.30
2017-06-02T17:53:14.503Z,1.43
2017-06-02T17:55:43.443Z,1.32
2017-06-02T17:58:12.430Z,1.03
2017-06-02T18:00:41.400Z,1.60
2017-06-02T18:03:10.322Z,1.47
2017-06-02T18:05:39.277Z,1.57
2017-06-02T18:08:08.230Z,1.68
2017-06-02T18:10:37.192Z,1.50
2017-06-02T18:13:06.145Z,1.48
2017-06-02T18:15:35.070Z,1.22
2017-06-02T18:18:03.992Z,1.55
2017-06-02T18:20:32.950Z,1.37
2017-06-02T18:23:01.876Z,1.65
2017-06-02T18:25:30.806Z,1.38
2017-06-02T18:27:59.763Z,1.20
2017-06-02T18:30:28.709Z,1.70
2017-06-02T18:32:57.629Z,1.50
2017-06-02T18:35:26.612Z,1.32
2017-06-02T18:37:55.575Z,1.43
2017-06-02T18:40:24.497Z,1.32
2017-06-02T18:42:53.464Z,2.17
2017-06-02T18:45:22.413Z,1.78
2017-06-02T18:47:51.333Z,2.08
2017-06-02T18:50:20.278Z,1.35
2017-06-02T18:52:49.216Z,1.60
2017-06-02T18:55:18.152Z,1.37
2017-06-02T18:57:47.132Z,1.43
2017-06-02T19:00:16.069Z,1.40
2017-06-02T19:02:45.013Z,1.50
2017-06-02T19:05:13.986Z,1.23
2017-06-02T19:07:42.924Z,1.28
2017-06-02T19:10:11.846Z,1.47
2017-06-02T19:12:40.806Z,1.72
2017-06-02T19:15:09.752Z,1.60
2017-06-02T19:17:38.670Z,1.87
2017-06-02T19:20:07.631Z,1.92
2017-06-02T19:22:36.569Z,1.45
2017-06-02T19:25:05.494Z,2.18
2017-06-02T19:27:34.441Z,1.90
2017-06-02T19:30:03.359Z,1.48
2017-06-02T19:32:32.290Z,1.92
2017-06-02T19:35:01.262Z,3.25
2017-06-02T19:37:30.200Z,2.57
2017-06-02T19:39:59.158Z,1.70
2017-06-02T19:42:28.145Z,1.80
2017-06-02T19:44:57.087Z,1.87
2017-06-02T19:47:26.028Z,1.80
2017-06-02T19:49:55.001Z,2.10
2017-06-02T19:52:23.944Z,1.82
2017-06-02T19:54:52.871Z,1.40
2017-06-02T19:57:21.818Z,1.60
2017-06-02T19:59:50.771Z,2.02
2017-06-02T20:02:19.701Z,2.37
2017-06-02T20:04:48.753Z,2.78
2017-06-02T20:07:17.688Z,2.40
2017-06-02T20:09:46.632Z,2.58
2017-06-02T20:12:15.573Z,2.23
2017-06-02T20:14:44.521Z,3.10
2017-06-02T20:17:13.441Z,2.40
2017-06-02T20:19:42.409Z,3.45
2017-06-02T20:22:11.334Z,2.98
2017-06-02T20:24:40.303Z,3.33
2017-06-02T20:27:09.301Z,3.52
2017-06-02T20:29:38.225Z,3.23
2017-06-02T20:32:07.148Z,3.88
2017-06-02T20:34:36.110Z,3.60
2017-06-02T20:37:05.038Z,3.38
2017-06-02T20:39:33.973Z,4.07
2017-06-02T20:42:02.918Z,4.53
2017-06-02T20:44:31.847Z,4.28
2017-06-02T20:47:00.775Z,4.25
2017-06-02T20:49:29.748Z,4.30
2017-06-02T20:51:58.670Z,4.82
2017-06-02T20:54:27.615Z,4.28
2017-06-02T20:56:56.596Z,4.62
2017-06-02T20:59:25.543Z,4.70
2017-06-02T21:01:54.465Z,4.40
2017-06-02T21:04:23.426Z,4.93
2017-06-02T21:06:52.346Z,4.95
2017-06-02T21:09:21.288Z,5.58
2017-06-02T21:11:50.245Z,4.82
2017-06-02T21:14:19.162Z,4.75
2017-06-02T21:16:48.090Z,5.23
2017-06-02T21:19:17.041Z,5.02
2017-06-02T21:21:45.965Z,5.00
2017-06-02T21:24:14.900Z,5.58
2017-06-02T21:26:43.854Z,5.42
2017-06-02T21:29:12.779Z,5.85
2017-06-02T21:31:41.710Z,5.22
2017-06-02T21:34:10.671Z,4.68
2017-06-02T21:36:39.613Z,5.77
2017-06-02T21:39:08.560Z,5.70
2017-06-02T21:41:37.509Z,4.83
2017-06-02T21:44:06.449Z,6.20
2017-06-02T21:46:35.397Z,6.27
2017-06-02T21:49:04.372Z,5.17
2017-06-02T21:51:33.301Z,5.68
2017-06-02T21:54:02.241Z,6.28
2017-06-02T21:56:31.209Z,5.42
2017-06-02T21:59:00.152Z,6.82
2017-06-02T22:01:29.111Z,6.17
2017-06-02T22:03:58.199Z,6.00
2017-06-02T22:06:27.144Z,6.07
2017-06-02T22:08:56.086Z,6.05
2017-06-02T22:11:25.046Z,5.58
2017-06-02T22:13:53.985Z,6.05
2017-06-02T22:16:22.911Z,5.90
2017-06-02T22:18:51.882Z,6.02
2017-06-02T22:21:20.832Z,6.35
2017-06-02T22:23:49.753Z,5.88
2017-06-02T22:26:18.735Z,6.90
2017-06-02T22:28:47.680Z,7.08
2017-06-02T22:31:16.621Z,5.02
2017-06-02T22:33:45.575Z,5.63
2017-06-02T22:36:14.520Z,5.12
2017-06-02T22:38:43.466Z,6.08
2017-06-02T22:41:12.439Z,5.22
2017-06-02T22:43:41.381Z,6.22
2017-06-02T22:46:10.315Z,5.98
2017-06-02T22:48:39.291Z,6.35
2017-06-02T22:51:08.236Z,5.75
2017-06-02T22:53:37.176Z,6.22
2017-06-02T22:56:06.145Z,5.52
2017-06-02T22:58:35.092Z,6.15
2017-06-02T23:01:04.014Z,5.20
2017-06-02T23:03:33.004Z,5.02
2017-06-02T23:06:01.945Z,5.73
2017-06-02T23:08:30.866Z,5.38
2017-06-02T23:10:59.842Z,5.22
2017-06-02T23:13:28.803Z,4.98
2017-06-02T23:15:57.734Z,7.23
2017-06-02T23:18:26.690Z,6.23
2017-06-02T23:20:55.609Z,4.97
2017-06-02T23:23:24.526Z,5.45
2017-06-02T23:25:53.497Z,5.55
2017-06-02T23:28:23.469Z,5.05
2017-06-02T23:30:52.393Z,5.37
2017-06-02T23:33:21.373Z,5.43
2017-06-02T23:35:50.290Z,5.73
2017-06-02T23:38:19.212Z,6.62
2017-06-02T23:40:48.185Z,5.87
2017-06-02T23:43:17.132Z,5.32
2017-06-02T23:45:46.085Z,4.72
2017-06-02T23:48:15.037Z,4.57
2017-06-02T23:50:43.977Z,5.07
2017-06-02T23:53:12.928Z,4.50
2017-06-02T23:55:41.922Z,4.77
2017-06-02T23:58:10.856Z,4.98
